createdAt,value
2023-01-10T00:29:53.151Z,0
2023-01-10T00:30:33.371Z,0
2023-01-10T00:31:13.960Z,0
2023-01-10T00:36:37.878Z,0
2023-01-10T00:37:18.342Z,0
2023-01-10T00:37:58.834Z,0
2023-01-10T00:38:39.583Z,0
2023-01-10T00:39:19.798Z,0
2023-01-10T00:40:00.277Z,0
2023-01-10T00:40:40.743Z,0
2023-01-10T00:41:21.274Z,0
2023-01-10T00:42:01.751Z,0
2023-01-10T00:42:42.317Z,0
2023-01-10T00:50:08.699Z,0
2023-01-10T00:50:48.270Z,0
2023-01-10T00:51:28.775Z,0
2023-01-10T00:52:09.251Z,0
2023-01-10T00:52:49.773Z,0
2023-01-10T00:53:30.299Z,0
2023-01-10T00:54:10.811Z,0
2023-01-10T00:54:51.316Z,0
2023-01-10T00:55:31.823Z,0
2023-01-10T00:56:12.301Z,0
2023-01-10T01:02:49.088Z,0
2023-01-10T01:03:29.410Z,0
2023-01-10T01:04:09.821Z,0
2023-01-10T01:08:53.295Z,0
2023-01-10T01:09:33.786Z,0
2023-01-10T01:10:14.254Z,0
2023-01-10T01:10:54.784Z,0
2023-01-10T01:11:35.295Z,0
2023-01-10T01:12:15.808Z,0
2023-01-10T01:12:56.287Z,0
2023-01-10T01:13:36.828Z,0
2023-01-10T01:14:17.362Z,0
2023-01-10T01:14:57.840Z,0
2023-01-10T01:22:23.407Z,0
2023-01-10T01:23:03.919Z,0
2023-01-10T01:23:44.439Z,0
2023-01-10T01:24:24.951Z,0
2023-01-10T01:25:05.433Z,0
2023-01-10T01:25:45.980Z,0
2023-01-10T01:26:26.555Z,0
2023-01-10T01:27:06.981Z,0
2023-01-10T01:27:47.475Z,0
2023-01-10T01:28:27.998Z,0
2023-01-10T01:35:53.499Z,0
2023-01-10T01:36:33.940Z,0
2023-01-10T01:37:14.455Z,0
2023-01-10T01:37:54.932Z,0
2023-01-10T01:38:35.380Z,0
2023-01-10T01:39:15.880Z,0
2023-01-10T01:39:56.371Z,0
2023-01-10T01:40:36.853Z,0
2023-01-10T01:41:17.344Z,0
2023-01-10T01:41:57.874Z,0
2023-01-10T01:49:23.316Z,0
2023-01-10T01:50:03.795Z,0
2023-01-10T01:50:44.254Z,0
2023-01-10T01:51:24.750Z,0
2023-01-10T01:52:05.226Z,0
2023-01-10T01:52:45.732Z,0
2023-01-10T01:53:26.272Z,0
2023-01-10T01:54:06.794Z,0
2023-01-10T01:54:47.286Z,0
2023-01-10T01:55:27.815Z,0
2023-01-10T02:03:02.011Z,0
2023-01-10T02:03:33.803Z,0
2023-01-10T02:04:14.297Z,0
2023-01-10T02:04:54.847Z,0
2023-01-10T02:05:35.246Z,0
2023-01-10T02:06:15.737Z,0
2023-01-10T02:06:56.232Z,0
2023-01-10T02:07:36.727Z,0
2023-01-10T02:08:17.201Z,0
2023-01-10T02:08:57.678Z,0
2023-01-10T02:09:38.157Z,0
2023-01-10T02:17:03.627Z,0
2023-01-10T02:17:44.112Z,0
2023-01-10T02:18:24.607Z,0
2023-01-10T02:19:05.105Z,0
2023-01-10T02:19:45.618Z,0
2023-01-10T02:21:06.625Z,0
2023-01-10T02:21:47.215Z,0
2023-01-10T02:22:27.734Z,0
2023-01-10T02:30:33.517Z,0
2023-01-10T02:31:14.003Z,0
2023-01-10T02:31:54.452Z,0
2023-01-10T02:32:45.645Z,0
2023-01-10T02:33:15.478Z,0
2023-01-10T02:33:55.993Z,0
2023-01-10T02:34:36.500Z,0
2023-01-10T02:35:17.052Z,0
2023-01-10T02:35:57.535Z,0
2023-01-10T02:36:38.011Z,0
2023-01-10T02:44:03.561Z,0
2023-01-10T02:44:44.054Z,0
2023-01-10T02:45:24.581Z,0
2023-01-10T02:46:05.137Z,0
2023-01-10T02:46:45.698Z,0
2023-01-10T02:47:26.799Z,0
2023-01-10T02:48:06.748Z,0
2023-01-10T02:48:47.261Z,0
2023-01-10T02:49:27.794Z,0
2023-01-10T02:56:53.184Z,0
2023-01-10T02:57:33.672Z,0
2023-01-10T02:58:14.170Z,0
2023-01-10T03:00:52.400Z,0
2023-01-10T03:01:32.969Z,0
2023-01-10T03:02:13.321Z,0
2023-01-10T03:02:53.807Z,0
2023-01-10T03:09:38.663Z,0
2023-01-10T03:10:19.133Z,0
2023-01-10T03:10:59.605Z,0
2023-01-10T03:11:40.168Z,0
2023-01-10T03:13:53.846Z,0
2023-01-10T03:14:34.550Z,0
2023-01-10T03:15:15.674Z,0
2023-01-10T03:16:38.429Z,0
2023-01-10T03:17:19.427Z,0
2023-01-10T03:18:00.578Z,0
2023-01-10T03:18:41.552Z,0
2023-01-10T03:19:22.538Z,0
2023-01-10T03:23:28.667Z,0
2023-01-10T03:24:09.681Z,0
2023-01-10T03:24:50.805Z,0
2023-01-10T03:25:31.777Z,0
2023-01-10T03:26:12.761Z,0
2023-01-10T03:29:37.855Z,0
2023-01-10T03:30:18.869Z,0
2023-01-10T03:31:00.082Z,0
2023-01-10T03:31:40.980Z,0
2023-01-10T03:32:21.959Z,0
2023-01-10T03:36:28.022Z,0
2023-01-10T03:37:09.065Z,0
2023-01-10T03:37:50.181Z,0
2023-01-10T03:38:31.099Z,0
2023-01-10T03:39:12.112Z,0
2023-01-10T03:45:25.469Z,0
2023-01-10T03:46:05.804Z,0
2023-01-10T03:46:46.605Z,0
2023-01-10T03:51:30.091Z,0
2023-01-10T03:52:10.597Z,0
2023-01-10T03:52:51.082Z,0
2023-01-10T03:53:31.556Z,0
2023-01-10T03:54:12.043Z,0
2023-01-10T03:54:52.585Z,0
2023-01-10T03:55:33.168Z,0
2023-01-10T03:56:13.638Z,0
2023-01-10T03:56:54.092Z,0
2023-01-10T03:57:34.569Z,0
2023-01-10T03:58:15.105Z,0
2023-01-10T04:05:00.097Z,0
2023-01-10T04:05:40.517Z,0
2023-01-10T04:06:21.157Z,0
2023-01-10T04:07:01.762Z,0
2023-01-10T04:07:42.233Z,0
2023-01-10T04:08:22.752Z,0
2023-01-10T04:09:03.311Z,0
2023-01-10T04:09:43.821Z,0
2023-01-10T04:10:25.255Z,0
2023-01-10T04:11:04.830Z,0
2023-01-10T04:18:30.296Z,0
2023-01-10T04:19:10.771Z,0
2023-01-10T04:19:51.306Z,0
2023-01-10T04:20:31.774Z,0
2023-01-10T04:21:12.308Z,0
2023-01-10T04:21:52.784Z,0
2023-01-10T04:22:33.322Z,0
2023-01-10T04:23:13.831Z,0
2023-01-10T04:23:54.363Z,0
2023-01-10T04:24:34.938Z,0
2023-01-10T04:32:00.564Z,0
2023-01-10T04:32:41.033Z,0
2023-01-10T04:33:21.571Z,0
2023-01-10T04:34:02.066Z,0
2023-01-10T04:34:42.568Z,0
2023-01-10T04:35:23.070Z,0
2023-01-10T04:36:03.597Z,0
2023-01-10T04:36:44.032Z,0
2023-01-10T04:37:24.593Z,0
2023-01-10T04:38:05.032Z,0
2023-01-10T04:44:50.121Z,0
2023-01-10T04:45:30.692Z,0
2023-01-10T04:46:11.170Z,0
2023-01-10T04:46:51.647Z,0
2023-01-10T04:47:32.116Z,0
2023-01-10T04:48:12.625Z,0
2023-01-10T04:48:53.157Z,0
2023-01-10T04:49:33.757Z,0
2023-01-10T04:53:13.135Z,0
2023-01-10T04:53:53.471Z,0
2023-01-10T04:54:33.973Z,0
2023-01-10T04:59:17.572Z,0
2023-01-10T04:59:58.081Z,0
2023-01-10T05:00:38.593Z,0
2023-01-10T05:01:19.206Z,0
2023-01-10T05:01:59.736Z,0
2023-01-10T05:02:41.196Z,0
2023-01-10T05:03:21.642Z,0
2023-01-10T05:04:02.186Z,0
2023-01-10T05:10:47.758Z,0
2023-01-10T05:11:28.283Z,0
2023-01-10T05:12:08.759Z,0
2023-01-10T05:12:49.286Z,0
2023-01-10T05:13:30.036Z,0
2023-01-10T05:14:10.438Z,0
2023-01-10T05:14:51.012Z,0
2023-01-10T05:15:31.569Z,0
2023-01-10T05:16:12.133Z,0
2023-01-10T05:22:57.440Z,0
2023-01-10T05:23:38.408Z,0
2023-01-10T05:24:18.847Z,0
2023-01-10T05:24:59.339Z,0
2023-01-10T05:25:40.737Z,0
2023-01-10T05:26:21.230Z,0
2023-01-10T05:27:01.728Z,0
2023-01-10T05:27:42.216Z,0
2023-01-10T05:33:08.412Z,0
2023-01-10T05:33:49.752Z,0
2023-01-10T05:34:30.274Z,0
2023-01-10T05:35:10.741Z,0
2023-01-10T05:35:51.333Z,0
2023-01-10T05:36:31.931Z,0
2023-01-10T05:37:24.068Z,0
2023-01-10T05:40:07.586Z,0
2023-01-10T05:40:48.115Z,0
2023-01-10T05:41:28.680Z,0
2023-01-10T05:42:09.183Z,0
2023-01-10T05:42:50.593Z,0
2023-01-10T05:43:31.170Z,0
2023-01-10T05:44:13.567Z,0
2023-01-10T05:48:07.051Z,0
2023-01-10T05:48:48.545Z,0
2023-01-10T05:49:29.050Z,0
2023-01-10T05:51:31.544Z,0
2023-01-10T05:52:12.126Z,0
2023-01-10T05:52:52.786Z,0
2023-01-10T06:32:30.550Z,0
2023-01-10T06:33:11.015Z,0
2023-01-10T06:33:52.313Z,0
2023-01-10T06:39:07.863Z,0
2023-01-10T06:39:49.255Z,0
2023-01-10T06:40:29.818Z,0
2023-01-10T06:41:50.844Z,0
2023-01-10T06:42:31.498Z,0
2023-01-10T06:43:12.024Z,0
2023-01-10T06:43:52.564Z,0
2023-01-10T06:44:33.032Z,0
2023-01-10T06:45:13.543Z,0
2023-01-10T06:45:54.173Z,0
2023-01-10T06:46:34.697Z,0
2023-01-10T06:47:15.208Z,0
2023-01-10T06:54:59.675Z,0
2023-01-10T06:55:40.324Z,0
2023-01-10T06:59:35.251Z,0
2023-01-10T07:00:16.422Z,0
2023-01-10T07:00:57.154Z,0
2023-01-10T07:04:59.183Z,0
2023-01-10T07:05:39.634Z,0
2023-01-10T07:06:20.143Z,0
2023-01-10T07:09:00.800Z,0
2023-01-10T07:09:42.069Z,0
2023-01-10T07:10:22.039Z,0
2023-01-10T07:11:03.018Z,0
2023-01-10T07:14:26.275Z,0
2023-01-10T07:15:06.742Z,0
2023-01-10T07:15:47.877Z,0
2023-01-10T07:16:28.921Z,0
2023-01-10T07:17:09.121Z,0
2023-01-10T07:17:49.800Z,0
2023-01-10T07:18:30.799Z,0
2023-01-10T07:23:16.519Z,0
2023-01-10T07:23:58.078Z,0
2023-01-10T07:25:21.354Z,0
2023-01-10T07:28:06.070Z,0
2023-01-10T07:28:47.249Z,0
2023-01-10T07:29:27.671Z,0
2023-01-10T07:30:08.318Z,0
2023-01-10T07:30:48.835Z,0
2023-01-10T07:31:30.542Z,0
2023-01-10T07:34:57.389Z,0
2023-01-10T07:35:38.111Z,0
2023-01-10T07:36:18.991Z,0
2023-01-10T07:37:00.106Z,0
2023-01-10T07:37:41.132Z,0
2023-01-10T07:40:01.975Z,0
2023-01-10T07:40:45.244Z,0
2023-01-10T07:41:26.292Z,0
2023-01-10T07:42:07.187Z,0
2023-01-10T07:42:48.179Z,0
2023-01-10T07:43:30.202Z,0
2023-01-10T07:51:45.803Z,5
2023-01-10T07:56:57.864Z,5
2023-01-10T07:57:38.339Z,5
2023-01-10T07:58:18.989Z,5
2023-01-10T07:59:02.322Z,5
2023-01-10T07:59:45.067Z,5
2023-01-10T08:00:26.000Z,5
2023-01-10T08:03:51.522Z,10
2023-01-10T08:04:34.005Z,10
2023-01-10T08:05:15.538Z,10
2023-01-10T08:08:41.349Z,10
2023-01-10T08:09:22.858Z,10
2023-01-10T08:10:04.324Z,10
2023-01-10T08:10:44.792Z,10
2023-01-10T08:11:25.727Z,10
2023-01-10T08:16:26.342Z,10
2023-01-10T08:17:06.894Z,15
2023-01-10T08:17:48.008Z,15
2023-01-10T08:18:28.404Z,15
2023-01-10T08:19:09.551Z,15
2023-01-10T08:19:49.993Z,15
2023-01-10T08:20:31.072Z,15
2023-01-10T08:21:11.261Z,15
2023-01-10T08:21:52.581Z,15
2023-01-10T08:22:32.486Z,15
2023-01-10T08:23:13.532Z,15
2023-01-10T08:30:34.782Z,15
2023-01-10T08:31:15.487Z,15
2023-01-10T08:31:56.143Z,15
2023-01-10T08:33:18.090Z,15
2023-01-10T08:34:00.392Z,15
2023-01-10T08:34:41.454Z,15
2023-01-10T08:35:22.102Z,15
2023-01-10T08:43:08.088Z,20
2023-01-10T08:43:49.119Z,20
2023-01-10T08:44:30.293Z,20
2023-01-10T08:45:13.015Z,20
2023-01-10T08:45:54.133Z,20
2023-01-10T08:46:36.486Z,20
2023-01-10T08:51:24.777Z,20
2023-01-10T08:52:05.546Z,25
2023-01-10T08:52:46.087Z,25
2023-01-10T08:53:27.375Z,25
2023-01-10T08:54:49.249Z,20
2023-01-10T08:55:30.154Z,25
2023-01-10T08:56:10.827Z,25
2023-01-10T08:59:57.293Z,25
2023-01-10T09:03:19.111Z,25
2023-01-10T09:03:59.898Z,25
2023-01-10T09:04:40.216Z,25
2023-01-10T09:05:28.664Z,25
2023-01-10T09:06:01.791Z,25
2023-01-10T09:09:21.147Z,25
2023-01-10T09:10:01.654Z,25
2023-01-10T09:10:42.809Z,25
2023-01-10T09:11:23.463Z,25
2023-01-10T09:12:45.380Z,25
2023-01-10T09:13:25.937Z,25
2023-01-10T09:14:06.610Z,25
2023-01-10T09:14:47.259Z,25
2023-01-10T09:15:28.023Z,25
2023-01-10T09:16:08.704Z,25
2023-01-10T09:16:49.157Z,25
2023-01-10T09:17:29.922Z,25
2023-01-10T09:20:15.761Z,25
2023-01-10T09:20:56.398Z,25
2023-01-10T09:21:37.058Z,25
2023-01-10T09:22:17.636Z,25
2023-01-10T09:22:58.391Z,25
2023-01-10T09:23:38.908Z,25
2023-01-10T09:24:19.537Z,25
2023-01-10T09:25:00.189Z,25
2023-01-10T09:30:25.994Z,30
2023-01-10T09:31:06.645Z,30
2023-01-10T09:31:47.396Z,30
2023-01-10T09:32:27.853Z,30
2023-01-10T09:33:08.514Z,30
2023-01-10T09:33:49.180Z,30
2023-01-10T09:34:29.625Z,30
2023-01-10T09:40:35.862Z,25
2023-01-10T09:41:16.383Z,25
2023-01-10T09:41:56.981Z,25
2023-01-10T09:42:37.712Z,25
2023-01-10T09:43:18.165Z,25
2023-01-10T09:44:00.993Z,25
2023-01-10T09:44:39.176Z,25
2023-01-10T09:45:19.712Z,25
2023-01-10T09:46:00.274Z,25
2023-01-10T09:54:10.519Z,25
2023-01-10T09:54:41.458Z,25
2023-01-10T09:55:22.531Z,25
2023-01-10T09:56:44.951Z,25
2023-01-10T09:57:26.110Z,25
2023-01-10T09:58:07.208Z,25
2023-01-10T09:58:48.290Z,25
2023-01-10T10:02:45.007Z,25
2023-01-10T10:03:25.650Z,25
2023-01-10T10:04:06.207Z,25
2023-01-10T10:08:05.504Z,30
2023-01-10T10:08:45.927Z,30
2023-01-10T10:09:26.977Z,30
2023-01-10T10:12:50.620Z,25
2023-01-10T10:13:31.139Z,30
2023-01-10T10:14:11.741Z,30
2023-01-10T10:14:52.487Z,30
2023-01-10T10:15:33.034Z,30
2023-01-10T10:16:13.615Z,30
2023-01-10T10:16:54.094Z,30
2023-01-10T10:20:30.702Z,30
2023-01-10T10:21:11.300Z,30
2023-01-10T10:24:42.024Z,30
2023-01-10T10:25:22.431Z,35
2023-01-10T10:26:03.080Z,35
2023-01-10T10:29:26.452Z,35
2023-01-10T10:30:07.561Z,35
2023-01-10T10:30:48.873Z,30
2023-01-10T10:31:29.424Z,30
2023-01-10T10:32:09.960Z,30
2023-01-10T10:32:50.465Z,30
2023-01-10T10:33:31.264Z,30
2023-01-10T10:37:05.432Z,30
2023-01-10T10:38:26.791Z,25
2023-01-10T10:39:07.312Z,25
2023-01-10T10:39:47.879Z,25
2023-01-10T10:40:28.556Z,25
2023-01-10T10:41:09.150Z,25
2023-01-10T10:41:50.034Z,30
2023-01-10T10:42:30.623Z,25
2023-01-10T10:43:11.114Z,30
2023-01-10T10:46:36.563Z,30
2023-01-10T10:47:17.625Z,30
2023-01-10T10:47:58.428Z,30
2023-01-10T10:48:38.940Z,30
2023-01-10T10:49:19.693Z,30
2023-01-10T10:50:00.455Z,30
2023-01-10T10:50:41.202Z,30
2023-01-10T10:55:26.997Z,30
2023-01-10T10:56:07.701Z,30
2023-01-10T10:56:48.790Z,30
2023-01-10T10:57:29.421Z,30
2023-01-10T10:58:10.561Z,25
2023-01-10T10:58:51.356Z,25
2023-01-10T11:03:36.812Z,25
2023-01-10T11:04:20.640Z,25
2023-01-10T11:10:21.405Z,25
2023-01-10T11:11:02.660Z,25
2023-01-10T11:11:43.692Z,25
2023-01-10T11:12:25.605Z,25
2023-01-10T11:13:06.809Z,25
2023-01-10T11:13:47.838Z,25
2023-01-10T11:15:59.062Z,25
2023-01-10T11:19:16.542Z,25
2023-01-10T11:20:00.591Z,25
2023-01-10T11:20:42.516Z,25
2023-01-10T11:21:25.327Z,25
2023-01-10T11:23:41.983Z,25
2023-01-10T11:24:22.495Z,25
2023-01-10T11:26:42.331Z,25
2023-01-10T11:27:23.987Z,25
2023-01-10T11:28:04.864Z,25
2023-01-10T11:30:09.551Z,25
2023-01-10T11:30:50.706Z,25
2023-01-10T11:35:51.596Z,25
2023-01-10T11:39:25.969Z,25
2023-01-10T11:40:06.575Z,25
2023-01-10T11:40:47.385Z,25
2023-01-10T11:41:27.913Z,25
2023-01-10T11:44:50.830Z,25
2023-01-10T11:45:31.453Z,25
2023-01-10T11:46:11.997Z,25
2023-01-10T11:46:52.487Z,25
2023-01-10T11:47:37.930Z,25
2023-01-10T11:48:13.485Z,25
2023-01-10T11:49:05.336Z,25
2023-01-10T11:49:34.530Z,25
2023-01-10T11:50:15.076Z,25
2023-01-10T11:50:55.579Z,25
2023-01-10T12:32:35.700Z,15
2023-01-10T12:33:16.153Z,15
2023-01-10T12:33:56.716Z,15
2023-01-10T12:37:20.190Z,15
2023-01-10T12:38:00.597Z,15
2023-01-10T12:38:41.261Z,15
2023-01-10T12:39:21.737Z,15
2023-01-10T12:40:02.317Z,15
2023-01-10T12:40:42.924Z,15
2023-01-10T12:41:23.559Z,15
2023-01-10T12:42:04.180Z,15
2023-01-10T12:42:44.645Z,15
2023-01-10T12:43:25.230Z,15
2023-01-10T12:48:50.575Z,15
2023-01-10T12:49:31.128Z,15
2023-01-10T12:50:11.810Z,10
2023-01-10T12:50:52.270Z,10
2023-01-10T12:51:32.883Z,10
2023-01-10T12:52:13.383Z,10
2023-01-10T12:52:53.906Z,10
2023-01-10T12:53:34.463Z,10
2023-01-10T13:01:00.619Z,10
2023-01-10T13:01:41.204Z,10
2023-01-10T13:02:21.795Z,10
2023-01-10T13:03:02.450Z,10
2023-01-10T13:03:42.855Z,10
2023-01-10T13:04:23.332Z,10
2023-01-10T13:05:03.890Z,10
2023-01-10T13:05:44.435Z,10
2023-01-10T13:09:13.922Z,10
2023-01-10T13:09:54.496Z,10
2023-01-10T13:10:35.089Z,10
2023-01-10T13:14:38.559Z,10
2023-01-10T13:15:19.088Z,10
2023-01-10T13:15:59.680Z,10
2023-01-10T13:16:40.316Z,10
2023-01-10T13:17:21.767Z,10
2023-01-10T13:18:01.490Z,10
2023-01-10T13:18:42.037Z,10
2023-01-10T13:19:22.705Z,10
2023-01-10T13:25:28.090Z,10
2023-01-10T13:26:08.728Z,10
2023-01-10T13:26:49.174Z,10
2023-01-10T13:30:31.491Z,10
2023-01-10T13:31:12.132Z,10
2023-01-10T13:31:52.616Z,10
2023-01-10T13:39:18.628Z,5
2023-01-10T13:39:58.946Z,5
2023-01-10T13:40:39.665Z,5
2023-01-10T13:44:43.381Z,5
2023-01-10T13:45:23.947Z,5
2023-01-10T13:46:04.412Z,5
2023-01-10T13:46:45.103Z,5
2023-01-10T13:47:25.514Z,5
2023-01-10T13:48:47.092Z,5
2023-01-10T13:49:27.718Z,5
2023-01-10T13:55:33.064Z,5
2023-01-10T13:56:13.589Z,5
2023-01-10T13:56:54.105Z,5
2023-01-10T13:57:34.594Z,5
2023-01-10T13:58:15.118Z,5
2023-01-10T13:58:55.565Z,5
2023-01-10T13:59:36.065Z,5
2023-01-10T14:00:16.622Z,5
2023-01-10T14:00:57.287Z,5
2023-01-10T14:01:38.007Z,5
2023-01-10T14:07:03.260Z,5
2023-01-10T14:07:43.919Z,5
2023-01-10T14:08:24.444Z,5
2023-01-10T14:09:05.127Z,5
2023-01-10T14:09:45.643Z,5
2023-01-10T14:11:06.961Z,5
2023-01-10T14:11:47.633Z,5
2023-01-10T14:17:12.315Z,5
2023-01-10T14:17:52.942Z,5
2023-01-10T14:18:33.484Z,5
2023-01-10T14:22:37.288Z,0
2023-01-10T14:23:18.045Z,0
2023-01-10T14:23:58.490Z,0
2023-01-10T14:24:39.120Z,0
2023-01-10T14:25:19.989Z,0
2023-01-10T14:26:00.563Z,0
2023-01-10T14:26:41.454Z,0
2023-01-10T14:29:26.964Z,0
2023-01-10T14:30:07.512Z,0
2023-01-10T14:30:48.060Z,0
2023-01-10T14:31:28.684Z,0
2023-01-10T14:32:09.683Z,0
2023-01-10T14:32:50.277Z,0
2023-01-10T14:33:30.832Z,0
2023-01-10T14:34:11.591Z,0
2023-01-10T14:37:38.118Z,0
2023-01-10T14:38:18.994Z,0
2023-01-10T14:39:00.072Z,0
2023-01-10T14:43:48.411Z,0
2023-01-10T14:44:29.464Z,0
2023-01-10T14:45:11.641Z,0
2023-01-10T14:51:17.310Z,0
2023-01-10T14:51:57.897Z,0
2023-01-10T14:52:38.508Z,0
2023-01-10T14:53:19.066Z,0
2023-01-10T14:53:59.636Z,0
2023-01-10T14:54:40.445Z,0
2023-01-10T14:55:20.991Z,0
2023-01-10T14:56:01.380Z,0
2023-01-10T14:56:41.961Z,0
2023-01-10T15:03:27.216Z,0
2023-01-10T15:04:07.753Z,0
2023-01-10T15:04:48.586Z,0
2023-01-10T15:05:29.239Z,0
2023-01-10T15:06:09.933Z,0
2023-01-10T15:06:50.657Z,0
2023-01-10T15:07:31.266Z,0
2023-01-10T15:08:11.859Z,0
2023-01-10T15:14:16.956Z,0
2023-01-10T15:14:58.166Z,0
2023-01-10T15:15:40.268Z,0
2023-01-10T15:18:18.156Z,0
2023-01-10T15:18:59.045Z,0
2023-01-10T15:19:39.465Z,0
2023-01-10T15:20:20.788Z,0
2023-01-10T15:24:11.356Z,0
2023-01-10T15:24:51.877Z,0
2023-01-10T15:25:32.339Z,0
2023-01-10T15:26:19.426Z,0
2023-01-10T15:28:21.513Z,0
2023-01-10T15:29:01.964Z,0
2023-01-10T15:29:43.878Z,0
2023-01-10T15:30:23.162Z,0
2023-01-10T15:31:03.686Z,0
2023-01-10T15:31:44.641Z,0
2023-01-10T15:32:24.979Z,0
2023-01-10T15:33:05.701Z,0
2023-01-10T15:33:46.056Z,0
2023-01-10T15:39:51.877Z,0
2023-01-10T15:40:32.999Z,0
2023-01-10T15:41:13.540Z,0
2023-01-10T15:41:54.321Z,0
2023-01-10T15:42:34.929Z,0
2023-01-10T15:43:15.426Z,0
2023-01-10T15:43:56.544Z,0
2023-01-10T15:46:09.924Z,0
2023-01-10T15:46:50.504Z,0
2023-01-10T15:47:32.289Z,0
2023-01-10T15:48:54.774Z,0
2023-01-10T15:49:35.174Z,0
2023-01-10T15:50:15.726Z,0
2023-01-10T15:50:56.225Z,0
2023-01-10T15:51:36.739Z,0
2023-01-10T15:52:17.259Z,0
2023-01-10T15:52:57.809Z,0
2023-01-10T15:53:38.268Z,0
2023-01-10T15:54:18.797Z,0
2023-01-10T16:01:04.480Z,0
2023-01-10T16:01:45.121Z,0
2023-01-10T16:02:25.645Z,0
2023-01-10T16:03:05.994Z,0
2023-01-10T16:03:46.711Z,0
2023-01-10T16:04:26.997Z,0
2023-01-10T16:05:07.600Z,0
2023-01-10T16:05:48.010Z,0
2023-01-10T16:06:28.589Z,0
2023-01-10T16:13:54.289Z,0
2023-01-10T16:14:34.859Z,0
2023-01-10T16:18:14.235Z,0
2023-01-10T16:18:54.652Z,0
2023-01-10T16:19:35.209Z,0
2023-01-10T16:20:15.806Z,0
2023-01-10T16:24:18.840Z,0
2023-01-10T16:24:59.401Z,0
2023-01-10T16:25:39.927Z,0
2023-01-10T16:26:20.408Z,0
2023-01-10T16:27:00.946Z,0
2023-01-10T16:28:22.048Z,0
2023-01-10T16:29:02.594Z,0
2023-01-10T16:29:43.107Z,0
2023-01-10T16:30:23.619Z,0
2023-01-10T16:36:28.739Z,0
2023-01-10T16:37:09.212Z,0
2023-01-10T16:37:49.695Z,0
2023-01-10T16:38:30.374Z,0
2023-01-10T16:39:10.896Z,0
2023-01-10T16:39:51.436Z,0
2023-01-10T16:40:31.946Z,0
2023-01-10T16:41:12.553Z,0
2023-01-10T16:41:52.980Z,0
2023-01-10T16:42:33.519Z,0
2023-01-10T16:49:59.049Z,0
2023-01-10T16:50:39.556Z,0
2023-01-10T16:51:20.046Z,0
2023-01-10T16:52:00.533Z,0
2023-01-10T16:52:41.057Z,0
2023-01-10T16:53:21.540Z,0
2023-01-10T16:54:02.049Z,0
2023-01-10T16:54:42.565Z,0
2023-01-10T16:55:23.077Z,0
2023-01-10T16:56:03.622Z,0
2023-01-10T17:02:49.080Z,0
2023-01-10T17:03:29.595Z,0
2023-01-10T17:04:10.146Z,0
2023-01-10T17:04:50.602Z,0
2023-01-10T17:05:31.145Z,0
2023-01-10T17:06:11.657Z,0
2023-01-10T17:06:52.208Z,0
2023-01-10T17:14:19.084Z,0
2023-01-10T17:14:59.552Z,0
2023-01-10T17:15:40.039Z,0
2023-01-10T17:16:20.576Z,0
2023-01-10T17:17:03.863Z,0
2023-01-10T17:23:48.951Z,0
2023-01-10T17:24:29.506Z,0
2023-01-10T17:25:09.979Z,0
2023-01-10T17:25:50.440Z,0
2023-01-10T17:26:30.942Z,0
2023-01-10T17:27:11.521Z,0
2023-01-10T17:27:52.014Z,0
2023-01-10T17:28:32.522Z,0
2023-01-10T17:29:12.987Z,0
2023-01-10T17:29:53.522Z,0
2023-01-10T17:33:47.819Z,0
2023-01-10T17:34:28.274Z,0
2023-01-10T17:35:08.742Z,0
2023-01-10T17:39:52.441Z,0
2023-01-10T17:40:32.911Z,0
2023-01-10T17:41:13.413Z,0
2023-01-10T17:41:53.936Z,0
2023-01-10T17:42:34.471Z,0
2023-01-10T17:43:15.004Z,0
2023-01-10T17:43:55.481Z,0
2023-01-10T17:44:35.988Z,0
2023-01-10T17:45:16.802Z,0
2023-01-10T17:52:02.301Z,0
2023-01-10T17:52:42.806Z,0
2023-01-10T17:53:23.351Z,0
2023-01-10T17:54:03.834Z,0
2023-01-10T17:54:44.353Z,0
2023-01-10T18:34:05.735Z,0
2023-01-10T18:34:45.946Z,0
2023-01-10T18:35:26.429Z,0
2023-01-10T18:40:10.751Z,0
2023-01-10T18:40:51.290Z,0
2023-01-10T18:41:31.864Z,0
2023-01-10T18:42:12.330Z,0
2023-01-10T18:42:52.840Z,0
2023-01-10T18:43:33.338Z,0
2023-01-10T18:44:13.937Z,0
2023-01-10T18:44:54.310Z,0
2023-01-10T18:45:34.806Z,0
2023-01-10T18:46:15.357Z,0
2023-01-10T18:46:55.771Z,0
2023-01-10T18:50:21.640Z,0
2023-01-10T18:51:01.588Z,0
2023-01-10T18:51:42.244Z,0
2023-01-10T18:52:25.450Z,0
2023-01-10T18:59:42.434Z,0
2023-01-10T19:00:22.969Z,0
2023-01-10T19:01:03.469Z,0
2023-01-10T19:06:24.142Z,0
2023-01-10T19:07:04.704Z,0
2023-01-10T19:07:46.190Z,0
2023-01-10T19:09:48.339Z,0
2023-01-10T19:10:31.136Z,0
2023-01-10T19:11:15.079Z,0
2023-01-10T19:11:50.486Z,0
2023-01-10T19:15:09.922Z,0
2023-01-10T19:15:50.399Z,0
2023-01-10T19:16:30.887Z,0
2023-01-10T19:20:34.311Z,0
2023-01-10T19:21:14.937Z,0
2023-01-10T19:21:55.400Z,0
2023-01-10T19:22:35.931Z,0
2023-01-10T19:23:16.505Z,0
2023-01-10T19:23:57.009Z,0
2023-01-10T19:24:37.434Z,0
2023-01-10T19:25:18.739Z,0
2023-01-10T19:25:59.267Z,0
2023-01-10T19:32:44.441Z,0
2023-01-10T19:33:24.991Z,0
2023-01-10T19:34:05.455Z,0
2023-01-10T19:34:46.463Z,0
2023-01-10T19:35:26.499Z,0
2023-01-10T19:36:07.003Z,0
2023-01-10T19:36:47.481Z,0
2023-01-10T19:37:28.673Z,0
2023-01-10T19:38:09.146Z,0
2023-01-10T19:41:09.648Z,0
2023-01-10T19:41:49.928Z,0
2023-01-10T19:42:30.513Z,0
2023-01-10T19:47:47.450Z,0
2023-01-10T19:48:27.778Z,0
2023-01-10T19:49:08.309Z,0
2023-01-10T19:53:52.311Z,0
2023-01-10T19:54:32.791Z,0
2023-01-10T19:55:13.544Z,0
2023-01-10T19:55:54.071Z,0
2023-01-10T19:56:34.537Z,0
2023-01-10T19:57:15.012Z,0
2023-01-10T19:57:55.531Z,0
2023-01-10T19:58:36.093Z,0
2023-01-10T19:59:16.502Z,0
2023-01-10T20:06:01.949Z,0
2023-01-10T20:06:42.637Z,0
2023-01-10T20:07:23.025Z,0
2023-01-10T20:08:03.598Z,0
2023-01-10T20:08:44.052Z,0
2023-01-10T20:12:24.532Z,0
2023-01-10T20:13:05.060Z,0
2023-01-10T20:13:46.116Z,0
2023-01-10T20:17:49.140Z,0
2023-01-10T20:18:29.679Z,0
2023-01-10T20:19:10.267Z,0
2023-01-10T20:19:51.351Z,0
2023-01-10T20:21:12.414Z,0
2023-01-10T20:24:22.325Z,0
2023-01-10T20:25:02.803Z,0
2023-01-10T20:25:43.276Z,0
2023-01-10T20:30:26.797Z,0
2023-01-10T20:31:07.400Z,0
2023-01-10T20:31:47.889Z,0
2023-01-10T20:32:28.643Z,0
2023-01-10T20:33:09.100Z,0
2023-01-10T20:33:49.741Z,0
2023-01-10T20:34:30.363Z,0
2023-01-10T20:35:10.848Z,0
2023-01-10T20:41:56.838Z,0
2023-01-10T20:42:39.031Z,0
2023-01-10T20:43:58.486Z,0
2023-01-10T20:44:39.024Z,0
2023-01-10T20:45:19.495Z,0
2023-01-10T20:46:00.011Z,0
2023-01-10T20:46:40.597Z,0
2023-01-10T20:47:21.145Z,0
2023-01-10T20:48:01.574Z,0
2023-01-10T20:54:46.781Z,0
2023-01-10T20:55:27.981Z,0
2023-01-10T20:56:08.490Z,0
2023-01-10T20:56:48.936Z,0
2023-01-10T20:57:29.449Z,0
2023-01-10T20:58:10.017Z,0
2023-01-10T20:58:50.511Z,0
2023-01-10T21:02:31.371Z,0
2023-01-10T21:03:11.903Z,0
2023-01-10T21:03:52.443Z,0
2023-01-10T21:07:55.753Z,0
2023-01-10T21:08:36.168Z,0
2023-01-10T21:09:16.685Z,0
2023-01-10T21:09:57.167Z,0
2023-01-10T21:11:18.166Z,0
2023-01-10T21:12:10.506Z,0
2023-01-10T21:12:39.174Z,0
2023-01-10T21:13:19.705Z,0
2023-01-10T21:14:00.173Z,0
2023-01-10T21:20:05.514Z,0
2023-01-10T21:20:46.013Z,0
2023-01-10T21:21:26.513Z,0
2023-01-10T21:22:07.206Z,0
2023-01-10T21:22:47.715Z,0
2023-01-10T21:23:28.253Z,0
2023-01-10T21:24:08.705Z,0
2023-01-10T21:24:49.197Z,0
2023-01-10T21:25:29.706Z,0
2023-01-10T21:26:10.207Z,0
2023-01-10T21:33:35.731Z,0
2023-01-10T21:34:16.209Z,0
2023-01-10T21:34:56.690Z,0
2023-01-10T21:35:37.293Z,0
2023-01-10T21:36:17.874Z,0
2023-01-10T21:36:58.272Z,0
2023-01-10T21:37:38.830Z,0
2023-01-10T21:38:19.297Z,0
2023-01-10T21:38:59.834Z,0
2023-01-10T21:39:40.297Z,0
2023-01-10T21:47:05.987Z,0
2023-01-10T21:47:46.340Z,0
2023-01-10T21:48:26.891Z,0
2023-01-10T21:49:07.346Z,0
2023-01-10T21:49:47.842Z,0
2023-01-10T21:50:28.342Z,0
2023-01-10T21:51:08.867Z,0
2023-01-10T21:51:49.366Z,0
2023-01-10T21:52:29.864Z,0
2023-01-10T21:53:10.391Z,0
2023-01-10T21:59:55.533Z,0
2023-01-10T22:00:36.065Z,0
2023-01-10T22:01:16.585Z,0
2023-01-10T22:01:57.009Z,0
2023-01-10T22:02:37.506Z,0
2023-01-10T22:03:17.995Z,0
2023-01-10T22:03:58.741Z,0
2023-01-10T22:04:39.152Z,0
2023-01-10T22:05:19.699Z,0
2023-01-10T22:13:25.724Z,0
2023-01-10T22:14:06.225Z,0
2023-01-10T22:14:46.744Z,0
2023-01-10T22:15:27.208Z,0
2023-01-10T22:16:07.791Z,0
2023-01-10T22:16:48.276Z,0
2023-01-10T22:17:28.804Z,0
2023-01-10T22:18:09.257Z,0
2023-01-10T22:18:49.808Z,0
2023-01-10T22:19:30.239Z,0
2023-01-10T22:26:55.730Z,0
2023-01-10T22:27:36.200Z,0
2023-01-10T22:28:16.737Z,0
2023-01-10T22:28:57.192Z,0
2023-01-10T22:29:37.713Z,0
2023-01-10T22:30:18.158Z,0
2023-01-10T22:30:58.626Z,0
2023-01-10T22:31:39.181Z,0
2023-01-10T22:32:19.676Z,0
2023-01-10T22:33:00.142Z,0